Main page
METAR-TAF:

METAR-TAF

Airports :

Cranfield Airport

Cranfield, England

latitude: 52-04N, longitude: 000-37W, elevation: 111 m

Current weather observation

The report was made 15 hours and 2 minutes ago, at 16:50 UTC
Wind 4 kt from the Southeast, varying between East/Southeast and South
Temperature 17°C
Humidity 88%
Pressure 1013 hPa
Visibility 10 km or more
Broken clouds at a height of 1800 ft

METAR: EGTC 251650Z 14004KT 110V170 9999 BKN018 17/15 Q1013

Time: 08:52 (07:52 UTC)

Forecast

The report was made 17 hours and 53 minutes ago, at 13:59 UTC
Forecast valid from 25 at 15 UTC to 25 at 18 UTC
Wind 5 kt from the South/Southwest
Visibility 10 km or more
Scattered clouds at a height of 1600 ft
Probability 30% :
Temporary
from 25 at 15 UTC to 25 at 18 UTC
Broken clouds at a height of 1200 ft

TAF: EGTC 251359Z 2515/2518 20005KT 9999 SCT016 PROB30 TEMPO 2515/2518 BKN012

Weather observations and forecasts of more than 4000 airports (METAR and TAF reports).

The available stations are represented by yellow and red dots on the map.

Hover mouse over dot to see the name of the station.

Then click to see weather observations and forecasts.

To change the map : click on the green buttons with a black cross to zoom in, on the green button with a dash to zoom out, or on the green arrows for adjacent maps.


METAR-TAF: